createdAt,value
2018-08-28T00:00:14.892Z,14.81
2018-08-28T00:02:47.585Z,14.69
2018-08-28T00:05:22.086Z,14.63
2018-08-28T00:07:55.114Z,14.63
2018-08-28T00:10:27.610Z,14.58
2018-08-28T00:13:02.843Z,14.54
2018-08-28T00:15:35.823Z,14.60
2018-08-28T00:18:09.263Z,14.59
2018-08-28T00:20:41.996Z,14.52
2018-08-28T00:23:14.588Z,14.49
2018-08-28T00:25:47.348Z,14.46
2018-08-28T00:28:20.869Z,14.46
2018-08-28T00:30:53.623Z,14.44
2018-08-28T00:33:27.044Z,14.47
2018-08-28T00:35:59.945Z,14.50
2018-08-28T00:38:33.185Z,14.52
2018-08-28T00:41:07.813Z,14.51
2018-08-28T00:43:41.893Z,14.56
2018-08-28T00:46:14.809Z,14.55
2018-08-28T00:48:48.525Z,14.62
2018-08-28T00:51:21.340Z,14.72
2018-08-28T00:53:54.024Z,14.81
2018-08-28T00:56:29.326Z,14.87
2018-08-28T00:59:04.061Z,14.93
2018-08-28T01:01:36.561Z,14.98
2018-08-28T01:04:09.141Z,15.06
2018-08-28T01:06:41.716Z,15.14
2018-08-28T01:09:14.321Z,15.24
2018-08-28T01:11:47.102Z,15.27
2018-08-28T01:14:19.693Z,15.26
2018-08-28T01:16:52.345Z,15.24
2018-08-28T01:19:26.360Z,15.27
2018-08-28T01:21:59.845Z,15.32
2018-08-28T01:24:33.865Z,15.39
2018-08-28T01:27:06.628Z,15.41
2018-08-28T01:29:40.207Z,15.42
2018-08-28T01:32:12.772Z,15.42
2018-08-28T01:34:45.666Z,15.43
2018-08-28T01:37:18.248Z,15.43
2018-08-28T01:39:50.741Z,15.50
2018-08-28T01:42:25.097Z,15.56
2018-08-28T01:44:57.606Z,15.50
2018-08-28T01:47:31.475Z,15.52
2018-08-28T01:50:09.661Z,15.48
2018-08-28T01:52:42.532Z,15.39
2018-08-28T01:55:24.538Z,15.40
2018-08-28T01:57:57.448Z,15.28
2018-08-28T02:00:40.608Z,15.19
2018-08-28T02:03:13.537Z,15.12
2018-08-28T02:05:46.439Z,15.07
2018-08-28T02:08:19.157Z,15.09
2018-08-28T02:10:52.835Z,15.01
2018-08-28T02:13:25.958Z,14.91
2018-08-28T02:15:58.369Z,14.89
2018-08-28T02:18:30.969Z,14.90
2018-08-28T02:21:09.780Z,14.86
2018-08-28T02:23:42.488Z,14.78
2018-08-28T02:26:15.828Z,14.75
2018-08-28T02:28:48.456Z,14.78
2018-08-28T02:31:31.590Z,14.83
2018-08-28T02:34:07.779Z,14.77
2018-08-28T02:39:57.849Z,14.62
2018-08-28T02:42:30.979Z,14.57
2018-08-28T02:45:05.481Z,14.51
2018-08-28T02:47:42.239Z,14.52
2018-08-28T02:50:15.311Z,14.49
2018-08-28T02:52:47.757Z,14.33
2018-08-28T02:58:31.037Z,13.93
2018-08-28T03:01:03.828Z,13.86
2018-08-28T03:03:36.582Z,13.75
2018-08-28T03:06:09.188Z,13.68
2018-08-28T03:08:43.445Z,13.61
2018-08-28T03:11:15.855Z,13.40
2018-08-28T03:13:48.385Z,13.27
2018-08-28T03:16:40.881Z,13.20
2018-08-28T03:19:13.347Z,13.16
2018-08-28T03:21:46.214Z,13.14
2018-08-28T03:24:20.376Z,13.09
2018-08-28T03:26:52.969Z,13.01
2018-08-28T03:29:25.540Z,12.98
2018-08-28T03:32:14.890Z,12.99
2018-08-28T03:34:57.753Z,12.89
2018-08-28T03:37:30.299Z,12.81
2018-08-28T03:40:30.977Z,12.74
2018-08-28T03:43:14.358Z,12.80
2018-08-28T03:45:46.937Z,12.73
2018-08-28T03:48:19.999Z,12.63
2018-08-28T03:54:03.634Z,12.43
2018-08-28T03:56:37.572Z,12.38
2018-08-28T03:59:12.376Z,12.36
2018-08-28T04:01:45.227Z,12.28
2018-08-28T04:04:20.337Z,12.19
2018-08-28T04:10:04.240Z,12.56
2018-08-28T04:12:37.080Z,12.74
2018-08-28T04:15:23.517Z,12.95
2018-08-28T04:18:18.135Z,13.05
2018-08-28T04:24:00.693Z,12.78
2018-08-28T04:26:44.997Z,12.61
2018-08-28T04:29:18.752Z,12.55
2018-08-28T04:31:51.588Z,12.49
2018-08-28T04:34:24.117Z,12.46
2018-08-28T04:36:56.961Z,12.41
2018-08-28T04:39:29.476Z,12.37
2018-08-28T04:42:02.229Z,12.25
2018-08-28T04:44:35.081Z,12.11
2018-08-28T04:47:07.916Z,12.07
2018-08-28T04:49:40.340Z,12.10
2018-08-28T04:52:13.169Z,12.12
2018-08-28T04:54:46.808Z,12.16
2018-08-28T04:57:19.418Z,12.15
2018-08-28T04:59:52.361Z,12.02
2018-08-28T05:02:33.001Z,11.89
2018-08-28T05:05:09.061Z,11.79
2018-08-28T05:07:42.551Z,11.85
2018-08-28T05:10:15.141Z,11.92
2018-08-28T05:12:48.589Z,11.82
2018-08-28T05:15:21.588Z,11.71
2018-08-28T05:17:54.357Z,11.65
2018-08-28T05:20:28.501Z,11.59
2018-08-28T05:23:04.001Z,11.56
2018-08-28T05:25:36.553Z,11.61
2018-08-28T05:28:09.498Z,11.69
2018-08-28T05:30:42.347Z,11.67
2018-08-28T05:33:15.107Z,11.69
2018-08-28T05:35:48.995Z,11.74
2018-08-28T05:38:22.524Z,11.86
2018-08-28T05:40:56.148Z,11.89
2018-08-28T05:43:28.784Z,12.00
2018-08-28T05:46:03.070Z,12.16
2018-08-28T05:48:36.885Z,12.23
2018-08-28T05:51:09.649Z,12.33
2018-08-28T05:53:42.712Z,12.46
2018-08-28T05:56:15.442Z,12.53
2018-08-28T05:58:49.089Z,12.61
2018-08-28T06:01:24.307Z,12.70
2018-08-28T06:03:57.352Z,12.91
2018-08-28T06:06:30.148Z,13.16
2018-08-28T06:09:05.212Z,13.41
2018-08-28T06:11:38.692Z,13.65
2018-08-28T06:14:13.368Z,13.84
2018-08-28T06:16:48.564Z,13.97
2018-08-28T06:19:23.239Z,14.08
2018-08-28T06:21:58.708Z,14.20
2018-08-28T06:24:31.600Z,14.31
2018-08-28T06:27:05.608Z,14.41
2018-08-28T06:29:38.396Z,14.48
2018-08-28T06:32:12.423Z,14.60
2018-08-28T06:34:45.296Z,14.76
2018-08-28T06:37:19.014Z,14.86
2018-08-28T06:39:52.352Z,14.96
2018-08-28T06:42:25.013Z,15.01
2018-08-28T06:44:58.089Z,15.06
2018-08-28T06:47:34.889Z,15.17
2018-08-28T06:50:09.290Z,15.27
2018-08-28T06:52:42.033Z,15.33
2018-08-28T06:55:16.696Z,15.37
2018-08-28T06:57:49.232Z,15.45
2018-08-28T07:00:23.632Z,15.57
2018-08-28T07:02:57.283Z,15.68
2018-08-28T07:05:31.358Z,15.78
2018-08-28T07:08:04.603Z,15.87
2018-08-28T07:10:37.302Z,15.95
2018-08-28T07:13:10.649Z,16.04
2018-08-28T07:15:44.626Z,16.10
2018-08-28T07:18:17.253Z,16.11
2018-08-28T07:27:32.805Z,16.36
2018-08-28T07:30:07.901Z,16.44
2018-08-28T07:32:42.753Z,16.52
2018-08-28T07:35:16.194Z,16.57
2018-08-28T07:37:48.666Z,16.67
2018-08-28T07:40:22.553Z,16.80
2018-08-28T07:42:55.046Z,17.00
2018-08-28T07:45:27.927Z,17.49
2018-08-28T07:48:02.988Z,18.32
2018-08-28T07:50:35.442Z,19.17
2018-08-28T07:53:09.777Z,19.70
2018-08-28T07:55:46.840Z,19.99
2018-08-28T07:58:19.836Z,20.45
2018-08-28T08:00:53.197Z,20.61
2018-08-28T08:03:25.974Z,20.64
2018-08-28T08:06:01.075Z,20.72
2018-08-28T08:08:34.973Z,20.94
2018-08-28T08:11:17.272Z,20.95
2018-08-28T08:13:51.977Z,20.92
2018-08-28T08:16:24.657Z,20.87
2018-08-28T08:18:57.693Z,20.97
2018-08-28T08:21:30.197Z,21.19
2018-08-28T08:24:05.042Z,21.60
2018-08-28T08:26:38.510Z,21.63
2018-08-28T08:29:11.737Z,21.96
2018-08-28T08:31:48.176Z,22.13
2018-08-28T08:34:21.197Z,21.70
2018-08-28T08:36:55.249Z,21.31
2018-08-28T08:39:30.896Z,21.33
2018-08-28T08:42:05.474Z,21.49
2018-08-28T08:44:39.278Z,21.30
2018-08-28T08:47:14.638Z,20.96
2018-08-28T08:49:47.540Z,20.70
2018-08-28T08:52:20.438Z,21.03
2018-08-28T08:54:53.108Z,21.67
2018-08-28T08:57:26.245Z,22.44
2018-08-28T09:00:00.009Z,22.93
2018-08-28T09:02:40.474Z,23.25
2018-08-28T09:05:14.454Z,23.23
2018-08-28T09:07:53.972Z,23.21
2018-08-28T09:10:32.350Z,23.17
2018-08-28T09:13:05.567Z,23.17
2018-08-28T09:15:43.984Z,23.09
2018-08-28T09:18:20.153Z,23.00
2018-08-28T09:20:54.845Z,23.13
2018-08-28T09:23:34.986Z,22.93
2018-08-28T09:26:08.741Z,22.93
2018-08-28T09:28:50.689Z,22.86
2018-08-28T09:31:30.278Z,22.86
2018-08-28T09:34:05.731Z,23.34
2018-08-28T09:36:40.669Z,23.65
2018-08-28T09:39:16.384Z,23.45
2018-08-28T09:41:49.865Z,23.65
2018-08-28T09:44:26.214Z,23.90
2018-08-28T09:47:00.369Z,24.28
2018-08-28T09:49:33.853Z,24.13
2018-08-28T09:52:13.253Z,23.94
2018-08-28T09:54:46.527Z,23.98
2018-08-28T09:57:19.021Z,24.12
2018-08-28T09:59:53.533Z,24.69
2018-08-28T10:02:34.105Z,24.82
2018-08-28T10:05:07.979Z,24.95
2018-08-28T10:07:42.973Z,25.54
2018-08-28T10:10:15.722Z,26.00
2018-08-28T10:12:48.425Z,26.40
2018-08-28T10:15:21.530Z,26.38
2018-08-28T10:17:55.240Z,26.43
2018-08-28T10:20:28.453Z,26.29
2018-08-28T10:23:03.463Z,25.89
2018-08-28T10:25:38.649Z,25.82
2018-08-28T10:28:13.328Z,25.69
2018-08-28T10:30:47.809Z,25.10
2018-08-28T10:33:22.727Z,24.63
2018-08-28T10:35:58.714Z,24.21
2018-08-28T10:38:34.583Z,24.10
2018-08-28T10:41:08.750Z,24.52
2018-08-28T10:43:43.735Z,25.20
2018-08-28T10:46:20.937Z,25.57
2018-08-28T10:48:54.294Z,25.61
2018-08-28T10:51:31.160Z,25.48
2018-08-28T10:54:03.741Z,25.33
2018-08-28T10:56:39.184Z,25.18
2018-08-28T10:59:14.708Z,25.47
2018-08-28T11:01:55.501Z,25.84
2018-08-28T11:04:28.019Z,25.56
2018-08-28T11:07:03.230Z,25.60
2018-08-28T11:09:37.850Z,25.89
2018-08-28T11:12:11.181Z,26.27
2018-08-28T11:14:46.980Z,26.05
2018-08-28T11:17:21.085Z,25.76
2018-08-28T11:19:56.329Z,25.49
2018-08-28T11:22:30.575Z,25.14
2018-08-28T11:25:05.749Z,25.03
2018-08-28T11:27:39.198Z,25.20
2018-08-28T11:30:15.116Z,25.16
2018-08-28T11:32:55.242Z,25.15
2018-08-28T11:35:29.446Z,25.39
2018-08-28T11:38:02.614Z,25.67
2018-08-28T11:40:39.411Z,26.11
2018-08-28T11:43:16.614Z,26.22
2018-08-28T11:45:53.989Z,26.48
2018-08-28T11:48:28.462Z,26.49
2018-08-28T12:45:39.314Z,27.43
2018-08-28T12:48:14.082Z,28.04
2018-08-28T12:50:50.759Z,27.80
2018-08-28T12:53:31.383Z,27.92
2018-08-28T12:56:05.186Z,28.09
2018-08-28T12:58:41.632Z,27.49
2018-08-28T13:02:10.258Z,27.05
2018-08-28T13:05:27.929Z,26.84
2018-08-28T13:08:14.322Z,27.15
2018-08-28T13:10:50.409Z,27.24
2018-08-28T13:13:29.757Z,27.46
2018-08-28T13:16:03.945Z,27.57
2018-08-28T13:18:38.597Z,27.06
2018-08-28T13:21:13.482Z,27.21
2018-08-28T13:23:49.241Z,27.60
2018-08-28T13:26:24.058Z,28.14
2018-08-28T13:42:28.285Z,28.71
2018-08-28T13:45:08.046Z,28.49
2018-08-28T13:58:09.238Z,30.02
2018-08-28T14:00:46.382Z,30.02
2018-08-28T14:03:21.614Z,30.25
2018-08-28T14:05:56.913Z,30.28
2018-08-28T14:08:31.445Z,30.36
2018-08-28T14:11:05.456Z,30.55
2018-08-28T14:13:59.069Z,30.67
2018-08-28T14:16:44.957Z,30.62
2018-08-28T14:19:21.152Z,30.56
2018-08-28T14:21:53.578Z,30.93
2018-08-28T14:24:29.359Z,31.14
2018-08-28T14:27:03.558Z,31.24
2018-08-28T14:29:37.023Z,31.39
2018-08-28T14:32:12.225Z,31.67
2018-08-28T14:34:48.233Z,31.61
2018-08-28T14:37:37.988Z,31.28
2018-08-28T14:40:11.662Z,30.42
2018-08-28T14:42:51.778Z,30.35
2018-08-28T14:45:30.773Z,30.06
2018-08-28T14:48:04.906Z,29.96
2018-08-28T14:50:41.319Z,30.24
2018-08-28T14:53:17.290Z,30.44
2018-08-28T14:55:53.041Z,30.30
2018-08-28T14:58:29.621Z,30.45
2018-08-28T15:01:03.626Z,30.41
2018-08-28T15:03:43.088Z,29.85
2018-08-28T15:06:18.021Z,29.91
2018-08-28T15:08:53.782Z,29.91
2018-08-28T15:11:31.666Z,30.01
2018-08-28T15:14:05.117Z,30.43
2018-08-28T15:16:39.465Z,30.93
2018-08-28T15:19:12.720Z,31.19
2018-08-28T15:21:46.490Z,31.31
2018-08-28T15:24:22.514Z,31.49
2018-08-28T15:26:55.237Z,31.58
2018-08-28T15:29:31.195Z,31.40
2018-08-28T15:32:04.852Z,30.98
2018-08-28T15:34:41.201Z,30.85
2018-08-28T15:37:15.872Z,30.96
2018-08-28T15:39:49.424Z,30.76
2018-08-28T15:42:23.104Z,30.55
2018-08-28T15:44:58.153Z,30.05
2018-08-28T15:47:31.782Z,29.49
2018-08-28T15:50:07.929Z,29.31
2018-08-28T15:52:41.574Z,29.31
2018-08-28T15:55:19.847Z,29.64
2018-08-28T15:57:58.523Z,30.09
2018-08-28T16:00:33.850Z,30.32
2018-08-28T16:03:13.776Z,30.40
2018-08-28T16:05:50.755Z,30.29
2018-08-28T16:08:30.572Z,30.36
2018-08-28T16:11:04.028Z,30.47
2018-08-28T16:13:40.485Z,30.69
2018-08-28T16:16:15.782Z,30.65
2018-08-28T16:18:50.069Z,30.57
2018-08-28T16:21:37.700Z,30.30
2018-08-28T16:24:13.772Z,30.42
2018-08-28T16:26:46.340Z,30.25
2018-08-28T16:29:20.378Z,30.06
2018-08-28T16:31:53.993Z,29.77
2018-08-28T16:34:27.645Z,29.66
2018-08-28T16:37:01.848Z,29.54
2018-08-28T16:39:36.743Z,29.55
2018-08-28T16:42:10.312Z,29.54
2018-08-28T16:44:57.813Z,29.40
2018-08-28T16:47:31.969Z,29.29
2018-08-28T16:50:04.669Z,29.36
2018-08-28T16:52:39.574Z,29.35
2018-08-28T16:55:16.373Z,29.43
2018-08-28T16:57:51.132Z,29.41
2018-08-28T17:00:29.854Z,29.27
2018-08-28T17:03:04.233Z,29.09
2018-08-28T17:05:39.042Z,28.95
2018-08-28T17:08:21.107Z,28.90
2018-08-28T17:10:57.926Z,28.80
2018-08-28T17:13:53.241Z,28.70
2018-08-28T17:16:39.986Z,28.35
2018-08-28T17:19:15.038Z,27.98
2018-08-28T17:21:59.590Z,27.69
2018-08-28T17:27:10.422Z,27.09
2018-08-28T17:29:47.520Z,26.83
2018-08-28T17:32:20.414Z,26.51
2018-08-28T17:34:53.841Z,26.26
2018-08-28T17:37:34.066Z,26.08
2018-08-28T17:40:08.607Z,25.84
2018-08-28T17:42:43.772Z,25.62
2018-08-28T17:45:18.793Z,25.36
2018-08-28T17:47:53.822Z,25.15
2018-08-28T17:50:31.296Z,24.87
2018-08-28T17:53:05.381Z,24.58
2018-08-28T17:55:39.093Z,24.33
2018-08-28T17:58:18.627Z,24.11
2018-08-28T18:00:53.345Z,23.84
2018-08-28T18:03:29.968Z,23.52
2018-08-28T18:06:02.635Z,23.30
2018-08-28T18:08:37.273Z,23.05
2018-08-28T18:11:15.290Z,22.79
2018-08-28T18:13:49.727Z,22.56
2018-08-28T18:16:24.212Z,22.36
2018-08-28T18:19:02.394Z,22.16
2018-08-28T18:21:35.522Z,21.93
2018-08-28T18:24:11.107Z,21.69
2018-08-28T18:26:45.164Z,21.48
2018-08-28T18:29:23.000Z,21.26
2018-08-28T18:31:59.464Z,21.05
2018-08-28T18:34:37.989Z,20.82
2018-08-28T18:37:10.982Z,20.67
2018-08-28T18:39:45.061Z,20.54
2018-08-28T18:42:19.759Z,20.37
2018-08-28T18:44:54.648Z,20.16
2018-08-28T18:47:31.698Z,19.95
2018-08-28T18:50:06.393Z,19.77
2018-08-28T18:52:41.028Z,19.56
2018-08-28T18:55:14.450Z,19.30
2018-08-28T18:57:47.297Z,19.07
2018-08-28T19:00:22.709Z,18.87
2018-08-28T19:03:00.954Z,18.73
2018-08-28T19:05:35.118Z,18.54
2018-08-28T19:08:11.265Z,18.30
2018-08-28T19:10:49.353Z,18.11
2018-08-28T19:13:23.726Z,18.05
2018-08-28T19:16:01.159Z,17.90
2018-08-28T19:18:39.217Z,17.73
2018-08-28T19:21:13.208Z,17.63
2018-08-28T19:23:51.429Z,17.52
2018-08-28T19:26:32.438Z,17.46
2018-08-28T19:29:07.918Z,17.44
2018-08-28T19:31:49.926Z,17.33
2018-08-28T19:34:28.596Z,17.18
2018-08-28T19:37:09.893Z,17.16
2018-08-28T19:39:44.167Z,17.16
2018-08-28T19:42:18.645Z,17.08
2018-08-28T19:44:53.940Z,16.97
2018-08-28T19:47:28.281Z,16.84
2018-08-28T19:50:01.623Z,16.72
2018-08-28T19:52:36.769Z,16.61
2018-08-28T19:55:14.287Z,16.55
2018-08-28T19:57:52.070Z,16.48
2018-08-28T20:00:27.625Z,16.39
2018-08-28T20:03:03.231Z,16.31
2018-08-28T20:05:41.428Z,16.26
2018-08-28T20:08:17.728Z,16.18
2018-08-28T20:10:57.216Z,16.10
2018-08-28T20:13:32.612Z,16.03
2018-08-28T20:16:14.962Z,16.00
2018-08-28T20:18:50.245Z,16.01
2018-08-28T20:21:24.215Z,15.97
2018-08-28T20:23:57.176Z,15.91
2018-08-28T20:26:32.835Z,15.86
2018-08-28T20:29:08.067Z,15.91
2018-08-28T20:31:44.983Z,15.96
2018-08-28T20:34:21.243Z,15.98
2018-08-28T20:36:55.071Z,15.91
2018-08-28T20:39:44.911Z,15.85
2018-08-28T20:42:26.463Z,15.85
2018-08-28T20:45:05.475Z,15.80
2018-08-28T20:47:40.962Z,15.76
2018-08-28T20:50:22.741Z,15.66
2018-08-28T20:52:55.810Z,15.58
2018-08-28T20:55:29.800Z,15.51
2018-08-28T20:58:07.630Z,15.48
2018-08-28T21:00:41.631Z,15.47
2018-08-28T21:03:14.496Z,15.52
2018-08-28T21:05:48.660Z,15.47
2018-08-28T21:08:22.607Z,15.40
2018-08-28T21:10:56.981Z,15.34
2018-08-28T21:13:30.467Z,15.27
2018-08-28T21:16:03.356Z,15.19
2018-08-28T21:18:35.865Z,15.12
2018-08-28T21:21:09.969Z,15.04
2018-08-28T21:23:45.460Z,14.95
2018-08-28T21:26:17.941Z,14.95
2018-08-28T21:28:53.505Z,14.91
2018-08-28T21:31:27.047Z,14.84
2018-08-28T21:34:00.313Z,14.80
2018-08-28T21:36:42.786Z,14.77
2018-08-28T21:39:19.833Z,14.73
2018-08-28T21:41:55.540Z,14.74
2018-08-28T21:44:30.436Z,14.71
2018-08-28T21:47:04.624Z,14.82
2018-08-28T21:49:37.657Z,14.91
2018-08-28T21:52:12.522Z,15.02
2018-08-28T21:54:46.746Z,15.02
2018-08-28T21:57:21.805Z,14.97
2018-08-28T21:59:59.360Z,14.95
2018-08-28T22:02:37.206Z,14.94
2018-08-28T22:05:10.147Z,14.97
2018-08-28T22:07:45.115Z,15.04
2018-08-28T22:10:19.312Z,15.15
2018-08-28T22:12:53.489Z,15.39
2018-08-28T22:15:26.978Z,15.57
2018-08-28T22:18:03.424Z,15.73
2018-08-28T22:20:36.253Z,15.89
2018-08-28T22:23:10.626Z,16.04
2018-08-28T22:25:44.308Z,16.10
2018-08-28T22:28:18.028Z,16.17
2018-08-28T22:30:53.453Z,16.22
2018-08-28T22:33:26.802Z,16.19
2018-08-28T22:35:59.699Z,16.13
2018-08-28T22:38:32.695Z,16.19
2018-08-28T22:41:05.560Z,16.21
2018-08-28T22:43:38.904Z,16.21
2018-08-28T22:46:12.284Z,16.28
2018-08-28T22:48:46.570Z,16.37
2018-08-28T22:51:20.298Z,16.38
2018-08-28T22:53:53.254Z,16.39
2018-08-28T22:56:26.313Z,16.36
2018-08-28T22:58:58.865Z,16.42
2018-08-28T23:01:33.445Z,16.47
2018-08-28T23:04:07.471Z,16.50
2018-08-28T23:06:50.142Z,16.52
2018-08-28T23:09:24.181Z,16.49
2018-08-28T23:11:59.140Z,16.46
2018-08-28T23:14:32.993Z,16.42
2018-08-28T23:17:10.571Z,16.41
2018-08-28T23:19:45.783Z,16.44
2018-08-28T23:22:19.583Z,16.46
2018-08-28T23:24:53.736Z,16.48
2018-08-28T23:27:26.741Z,16.49
2018-08-28T23:30:00.351Z,16.55
2018-08-28T23:32:34.960Z,16.59
2018-08-28T23:35:08.160Z,16.62
2018-08-28T23:37:40.745Z,16.54
2018-08-28T23:40:17.707Z,16.49
2018-08-28T23:42:52.020Z,16.46
2018-08-28T23:45:26.477Z,16.40
2018-08-28T23:47:59.396Z,16.35
2018-08-28T23:50:32.723Z,16.30
2018-08-28T23:53:05.196Z,16.23
2018-08-28T23:55:39.048Z,16.14
2018-08-28T23:58:11.607Z,16.09
